Tracer — PHAC — position and weather

sailwx.info

Track history (hours):
 
Tides and Currents Weather Stations Pressure Air Temp Water Temp Dewpoint Dewpoint Depression Visibility Wind Speed Wind Dir Waves Ship Positions

Tracer

Last reported at 2017-Aug-17 03:05 UTC. Time now 2017-Aug-17 09:29 UTC.
Position N 37°09' E 003°27'.

Length 101 m; beam 20 m.

Type: Cargo ship. MMSI: 245949000.

Date/timePositionNaut miles runAvg speedWind from/ knotsBaromVisibWave heightAir tempDewpointWater temp
2017-Aug-17 03:05N 37°09' E 003°27'1814.2
2017-Aug-17 01:48N 37°12' E 003°50'414.3
2017-Aug-17 01:30N 37°13' E 003°55'714.4
2017-Aug-17 01:00N 37°14' E 004°04'1013.9
2017-Aug-17 00:16N 37°16' E 004°16'7713.9
2017-Aug-16 18:44N 37°27' E 005°52'314.2
2017-Aug-16 18:30N 37°27' E 005°56'814.2
2017-Aug-16 17:56N 37°29' E 006°06'714.6
2017-Aug-16 17:29N 37°30' E 006°14'2714.0
2017-Aug-16 15:34N 37°34' E 006°47'114.3
2017-Aug-16 15:30N 37°35' E 006°49'1814.3
2017-Aug-16 14:15N 37°37' E 007°11'814.3
2017-Aug-16 13:40N 37°38' E 007°21'714.5
2017-Aug-16 13:10N 37°39' E 007°30'314.5
2017-Aug-16 12:59N 37°39' E 007°34'714.4
2017-Aug-16 12:30N 37°40' E 007°42'914.7
2017-Aug-16 11:55N 37°42' E 007°53'3215.0
2017-Aug-16 09:48N 37°46' E 008°33'2315.0
2017-Aug-16 08:16N 37°51' E 009°01'414.8
2017-Aug-16 08:00N 37°52' E 009°06'714.4
2017-Aug-16 07:30N 37°53' E 009°15'714.4
2017-Aug-16 06:59N 37°54' E 009°25'714.4
2017-Aug-16 06:30N 37°55' E 009°33'814.8
2017-Aug-16 06:00N 37°56' E 009°43'714.8
2017-Aug-16 05:31N 37°57' E 009°52'1814.6
2017-Aug-16 04:18N 37°60' E 010°14'514.6
2017-Aug-16 04:00N 38°01' E 010°20'714.7
2017-Aug-16 03:30N 38°02' E 010°29'11315.0
2017-Aug-15 20:00N 38°18' E 012°51'815.3
2017-Aug-15 19:27N 38°19' E 013°01'715.3
2017-Aug-15 19:00N 38°19' E 013°10'815.2
2017-Aug-15 18:30N 38°19' E 013°20'714.8
2017-Aug-15 18:00N 38°19' E 013°29'714.6
2017-Aug-15 17:30N 38°19' E 013°38'815.0
2017-Aug-15 16:56N 38°20' E 013°49'1014.9
2017-Aug-15 16:14N 38°19' E 014°02'714.8
2017-Aug-15 15:45N 38°19' E 014°12'3814.6
2017-Aug-15 13:09N 38°19' E 015°00'214.7
2017-Aug-15 13:00N 38°19' E 015°03'714.7
2017-Aug-15 12:31N 38°20' E 015°12'714.3
2017-Aug-15 12:00N 38°20' E 015°21'714.2
2017-Aug-15 11:31N 38°20' E 015°30'713.9
2017-Aug-15 11:01N 38°20' E 015°39'5 9.9
2017-Aug-15 10:30N 38°15' E 015°39'612.9
2017-Aug-15 10:00N 38°09' E 015°37'713.6
2017-Aug-15 09:30N 38°02' E 015°36'713.3
2017-Aug-15 09:00N 37°55' E 015°39'916.1
2017-Aug-15 08:28N 37°52' E 015°49'15114.1
2017-Aug-14 21:44N 39°33' E 018°14'415.4
2017-Aug-14 21:28N 39°35' E 018°18'715.7
2017-Aug-14 21:00N 39°41' E 018°25'165 4.2
2017-Aug-13 05:12N 37°53' E 015°44'415.1
2017-Aug-13 04:56N 37°55' E 015°39'715.6
2017-Aug-13 04:30N 38°01' E 015°35'816.8
2017-Aug-13 04:00N 38°09' E 015°35'815.5
2017-Aug-13 03:30N 38°16' E 015°40'713.7
2017-Aug-13 03:00N 38°20' E 015°33'816.0
2017-Aug-13 02:30N 38°20' E 015°23'815.8
2017-Aug-13 02:00N 38°20' E 015°13'815.5
2017-Aug-13 01:31N 38°20' E 015°03'815.2
2017-Aug-13 01:00N 38°20' E 014°53'815.1
2017-Aug-13 00:30N 38°20' E 014°44'814.9
2017-Aug-13 00:00N 38°20' E 014°34'3215.3
2017-Aug-12 21:54N 38°19' E 013°53'715.3
2017-Aug-12 21:28N 38°19' E 013°45'715.2
2017-Aug-12 21:00N 38°19' E 013°36'715.2
2017-Aug-12 20:30N 38°19' E 013°26'815.7
2017-Aug-12 20:00N 38°19' E 013°16'815.3
2017-Aug-12 19:30N 38°19' E 013°06'715.0
2017-Aug-12 19:01N 38°18' E 012°57'814.7
2017-Aug-12 18:30N 38°18' E 012°47'  
2017-Aug-10 05:17N 35°59' W 005°14'518.2
2017-Aug-10 05:01N 35°58' W 005°20'917.3
2017-Aug-10 04:30N 35°56' W 005°31'1216.2
2017-Aug-10 03:46N 35°53' W 005°45'36713.4
2017-Aug-09 00:22N 31°46' W 011°11'9511.5
2017-Aug-08 16:03N 30°38' W 012°29'14112.3
2017-Aug-08 04:31N 28°58' W 014°23'012.5
2017-Aug-08 04:30N 28°57' W 014°24'612.9
2017-Aug-08 04:00N 28°53' W 014°29'1813.0
2017-Aug-08 02:37N 28°41' W 014°44'412.9
2017-Aug-08 02:20N 28°38' W 014°47'513.2
2017-Aug-08 02:00N 28°35' W 014°51'713.6
2017-Aug-08 01:28N 28°30' W 014°56'613.5
2017-Aug-08 00:59N 28°25' W 015°02'713.9
2017-Aug-08 00:30N 28°21' W 015°07'713.7
2017-Aug-08 00:00N 28°15' W 015°12'713.5
2017-Aug-07 23:30N 28°11' W 015°17'713.2
2017-Aug-07 23:00N 28°07' W 015°23'2 4.4
2017-Aug-07 22:30N 28°09' W 015°25'0 0.0
2017-Aug-07 22:00N 28°09' W 015°25'0 0.0
2017-Aug-07 21:29N 28°09' W 015°25'0 0.0
2017-Aug-07 20:59N 28°09' W 015°25'0 0.0
2017-Aug-07 20:29N 28°09' W 015°25'0 0.0
2017-Aug-07 19:59N 28°09' W 015°25'0 0.0
2017-Aug-07 19:29N 28°09' W 015°25'0 0.0
2017-Aug-07 18:59N 28°09' W 015°25'0 0.0
2017-Aug-07 18:29N 28°09' W 015°25'0 0.0
2017-Aug-07 17:59N 28°09' W 015°25'0 0.0
2017-Aug-07 17:29N 28°09' W 015°25'0 0.0
2017-Aug-07 16:59N 28°09' W 015°25'0 0.2
2017-Aug-07 16:20N 28°08' W 015°25'1 2.5
2017-Aug-07 16:00N 28°08' W 015°25'1 2.2
2017-Aug-07 15:20N 28°09' W 015°25'0 0.2
2017-Aug-07 14:50N 28°09' W 015°25'0 0.0
2017-Aug-07 14:20N 28°09' W 015°25'0 0.0
2017-Aug-07 13:50N 28°09' W 015°25'0 0.0
2017-Aug-07 13:23N 28°09' W 015°25'0 0.0
2017-Aug-07 12:50N 28°09' W 015°25'0 0.0
2017-Aug-07 12:23N 28°09' W 015°25'0 0.0
2017-Aug-07 11:53N 28°09' W 015°25'0 0.0
2017-Aug-07 11:23N 28°09' W 015°25'0 0.0
2017-Aug-07 10:53N 28°09' W 015°25'0 0.0
2017-Aug-07 10:23N 28°09' W 015°25'0 0.0
2017-Aug-07 09:53N 28°09' W 015°25'0 0.0
2017-Aug-07 09:23N 28°09' W 015°25'0 0.0
2017-Aug-07 08:53N 28°09' W 015°25'0 0.0
2017-Aug-07 08:23N 28°09' W 015°25'0 0.0
2017-Aug-07 07:53N 28°09' W 015°25'0 0.4
2017-Aug-07 07:23N 28°09' W 015°25'0 0.0
2017-Aug-07 06:53N 28°09' W 015°25'0 0.0
2017-Aug-07 06:23N 28°09' W 015°25'0 0.0
2017-Aug-07 05:53N 28°09' W 015°25'0 0.0
2017-Aug-07 05:23N 28°09' W 015°25'0 0.0
2017-Aug-07 04:50N 28°09' W 015°25'0 0.0
2017-Aug-07 04:20N 28°09' W 015°25'0 0.0
2017-Aug-07 03:53N 28°09' W 015°25'0 0.0
2017-Aug-07 03:23N 28°09' W 015°25'  
Track history (hours):
 
Tides and Currents Weather Stations Pressure Air Temp Water Temp Dewpoint Dewpoint Depression Visibility Wind Speed Wind Dir Waves Ship Positions

Tracer

Last reported at 2017-Aug-17 03:05 UTC. Time now 2017-Aug-17 09:29 UTC.
Position N 37°09' E 003°27'.

Length 101 m; beam 20 m.

Type: Cargo ship. MMSI: 245949000.

Date/timePositionNaut miles runAvg speedWind from/ knotsBaromVisibWave heightAir tempDewpointWater temp
2017-Aug-17 03:05N 37°09' E 003°27'1814.2
2017-Aug-17 01:48N 37°12' E 003°50'414.3
2017-Aug-17 01:30N 37°13' E 003°55'714.4
2017-Aug-17 01:00N 37°14' E 004°04'1013.9
2017-Aug-17 00:16N 37°16' E 004°16'7713.9
2017-Aug-16 18:44N 37°27' E 005°52'314.2
2017-Aug-16 18:30N 37°27' E 005°56'814.2
2017-Aug-16 17:56N 37°29' E 006°06'714.6
2017-Aug-16 17:29N 37°30' E 006°14'2714.0
2017-Aug-16 15:34N 37°34' E 006°47'114.3
2017-Aug-16 15:30N 37°35' E 006°49'1814.3
2017-Aug-16 14:15N 37°37' E 007°11'814.3
2017-Aug-16 13:40N 37°38' E 007°21'714.5
2017-Aug-16 13:10N 37°39' E 007°30'314.5
2017-Aug-16 12:59N 37°39' E 007°34'714.4
2017-Aug-16 12:30N 37°40' E 007°42'914.7
2017-Aug-16 11:55N 37°42' E 007°53'3215.0
2017-Aug-16 09:48N 37°46' E 008°33'2315.0
2017-Aug-16 08:16N 37°51' E 009°01'414.8
2017-Aug-16 08:00N 37°52' E 009°06'714.4
2017-Aug-16 07:30N 37°53' E 009°15'714.4
2017-Aug-16 06:59N 37°54' E 009°25'714.4
2017-Aug-16 06:30N 37°55' E 009°33'814.8
2017-Aug-16 06:00N 37°56' E 009°43'714.8
2017-Aug-16 05:31N 37°57' E 009°52'1814.6
2017-Aug-16 04:18N 37°60' E 010°14'514.6
2017-Aug-16 04:00N 38°01' E 010°20'714.7
2017-Aug-16 03:30N 38°02' E 010°29'11315.0
2017-Aug-15 20:00N 38°18' E 012°51'815.3
2017-Aug-15 19:27N 38°19' E 013°01'715.3
2017-Aug-15 19:00N 38°19' E 013°10'815.2
2017-Aug-15 18:30N 38°19' E 013°20'714.8
2017-Aug-15 18:00N 38°19' E 013°29'714.6
2017-Aug-15 17:30N 38°19' E 013°38'815.0
2017-Aug-15 16:56N 38°20' E 013°49'1014.9
2017-Aug-15 16:14N 38°19' E 014°02'714.8
2017-Aug-15 15:45N 38°19' E 014°12'3814.6
2017-Aug-15 13:09N 38°19' E 015°00'214.7
2017-Aug-15 13:00N 38°19' E 015°03'714.7
2017-Aug-15 12:31N 38°20' E 015°12'714.3
2017-Aug-15 12:00N 38°20' E 015°21'714.2
2017-Aug-15 11:31N 38°20' E 015°30'713.9
2017-Aug-15 11:01N 38°20' E 015°39'5 9.9
2017-Aug-15 10:30N 38°15' E 015°39'612.9
2017-Aug-15 10:00N 38°09' E 015°37'713.6
2017-Aug-15 09:30N 38°02' E 015°36'713.3
2017-Aug-15 09:00N 37°55' E 015°39'916.1
2017-Aug-15 08:28N 37°52' E 015°49'15114.1
2017-Aug-14 21:44N 39°33' E 018°14'415.4
2017-Aug-14 21:28N 39°35' E 018°18'715.7
2017-Aug-14 21:00N 39°41' E 018°25'165 4.2
2017-Aug-13 05:12N 37°53' E 015°44'415.1
2017-Aug-13 04:56N 37°55' E 015°39'715.6
2017-Aug-13 04:30N 38°01' E 015°35'816.8
2017-Aug-13 04:00N 38°09' E 015°35'815.5
2017-Aug-13 03:30N 38°16' E 015°40'713.7
2017-Aug-13 03:00N 38°20' E 015°33'816.0
2017-Aug-13 02:30N 38°20' E 015°23'815.8
2017-Aug-13 02:00N 38°20' E 015°13'815.5
2017-Aug-13 01:31N 38°20' E 015°03'815.2
2017-Aug-13 01:00N 38°20' E 014°53'815.1
2017-Aug-13 00:30N 38°20' E 014°44'814.9
2017-Aug-13 00:00N 38°20' E 014°34'3215.3
2017-Aug-12 21:54N 38°19' E 013°53'715.3
2017-Aug-12 21:28N 38°19' E 013°45'715.2
2017-Aug-12 21:00N 38°19' E 013°36'715.2
2017-Aug-12 20:30N 38°19' E 013°26'815.7
2017-Aug-12 20:00N 38°19' E 013°16'815.3
2017-Aug-12 19:30N 38°19' E 013°06'715.0
2017-Aug-12 19:01N 38°18' E 012°57'814.7
2017-Aug-12 18:30N 38°18' E 012°47'  
2017-Aug-10 05:17N 35°59' W 005°14'518.2
2017-Aug-10 05:01N 35°58' W 005°20'917.3
2017-Aug-10 04:30N 35°56' W 005°31'1216.2
2017-Aug-10 03:46N 35°53' W 005°45'36713.4
2017-Aug-09 00:22N 31°46' W 011°11'9511.5
2017-Aug-08 16:03N 30°38' W 012°29'14112.3
2017-Aug-08 04:31N 28°58' W 014°23'012.5
2017-Aug-08 04:30N 28°57' W 014°24'612.9
2017-Aug-08 04:00N 28°53' W 014°29'1813.0
2017-Aug-08 02:37N 28°41' W 014°44'412.9
2017-Aug-08 02:20N 28°38' W 014°47'513.2
2017-Aug-08 02:00N 28°35' W 014°51'713.6
2017-Aug-08 01:28N 28°30' W 014°56'613.5
2017-Aug-08 00:59N 28°25' W 015°02'713.9
2017-Aug-08 00:30N 28°21' W 015°07'713.7
2017-Aug-08 00:00N 28°15' W 015°12'713.5
2017-Aug-07 23:30N 28°11' W 015°17'713.2
2017-Aug-07 23:00N 28°07' W 015°23'2 4.4
2017-Aug-07 22:30N 28°09' W 015°25'0 0.0
2017-Aug-07 22:00N 28°09' W 015°25'0 0.0
2017-Aug-07 21:29N 28°09' W 015°25'0 0.0
2017-Aug-07 20:59N 28°09' W 015°25'0 0.0
2017-Aug-07 20:29N 28°09' W 015°25'0 0.0
2017-Aug-07 19:59N 28°09' W 015°25'0 0.0
2017-Aug-07 19:29N 28°09' W 015°25'0 0.0
2017-Aug-07 18:59N 28°09' W 015°25'0 0.0
2017-Aug-07 18:29N 28°09' W 015°25'0 0.0
2017-Aug-07 17:59N 28°09' W 015°25'0 0.0
2017-Aug-07 17:29N 28°09' W 015°25'0 0.0
2017-Aug-07 16:59N 28°09' W 015°25'0 0.2
2017-Aug-07 16:20N 28°08' W 015°25'1 2.5
2017-Aug-07 16:00N 28°08' W 015°25'1 2.2
2017-Aug-07 15:20N 28°09' W 015°25'0 0.2
2017-Aug-07 14:50N 28°09' W 015°25'0 0.0
2017-Aug-07 14:20N 28°09' W 015°25'0 0.0
2017-Aug-07 13:50N 28°09' W 015°25'0 0.0
2017-Aug-07 13:23N 28°09' W 015°25'0 0.0
2017-Aug-07 12:50N 28°09' W 015°25'0 0.0
2017-Aug-07 12:23N 28°09' W 015°25'0 0.0
2017-Aug-07 11:53N 28°09' W 015°25'0 0.0
2017-Aug-07 11:23N 28°09' W 015°25'0 0.0
2017-Aug-07 10:53N 28°09' W 015°25'0 0.0
2017-Aug-07 10:23N 28°09' W 015°25'0 0.0
2017-Aug-07 09:53N 28°09' W 015°25'0 0.0
2017-Aug-07 09:23N 28°09' W 015°25'0 0.0
2017-Aug-07 08:53N 28°09' W 015°25'0 0.0
2017-Aug-07 08:23N 28°09' W 015°25'0 0.0
2017-Aug-07 07:53N 28°09' W 015°25'0 0.4
2017-Aug-07 07:23N 28°09' W 015°25'0 0.0
2017-Aug-07 06:53N 28°09' W 015°25'0 0.0
2017-Aug-07 06:23N 28°09' W 015°25'0 0.0
2017-Aug-07 05:53N 28°09' W 015°25'0 0.0
2017-Aug-07 05:23N 28°09' W 015°25'0 0.0
2017-Aug-07 04:50N 28°09' W 015°25'0 0.0
2017-Aug-07 04:20N 28°09' W 015°25'0 0.0
2017-Aug-07 03:53N 28°09' W 015°25'0 0.0
2017-Aug-07 03:23N 28°09' W 015°25'  

Dump ship's entire track history